Time;durP1;ratioP1;P1;durP2;ratioP2;P2;SDS_P1;SDS_P2;PMS_P1;PMS_P2;Temp;Humidity;BMP_temperature;BMP_pressure;BME280_temperature;BME280_humidity;BME280_pressure;Samples;Min_cycle;Max_cycle;Signal;HPM_P1;HPM_P2
2023/10/21 00:00:24;;;;;;;1.40;1.30;;;13.40;99.90;;;;;;4986118;28;20797;-65
2023/10/21 00:02:50;;;;;;;1.67;1.57;;;13.40;99.90;;;;;;4984487;28;20470;-64
2023/10/21 00:05:17;;;;;;;2.53;1.30;;;13.40;99.90;;;;;;4985724;28;20431;-65
2023/10/21 00:07:43;;;;;;;2.20;1.40;;;13.40;99.90;;;;;;4988789;28;20424;-65
2023/10/21 00:10:09;;;;;;;3.13;1.20;;;13.50;99.90;;;;;;4988302;28;21199;-64
2023/10/21 00:12:35;;;;;;;1.43;1.33;;;13.40;99.90;;;;;;4987958;28;20469;-65
2023/10/21 00:15:06;;;;;;;2.40;1.30;;;13.50;99.90;;;;;;4988424;28;20183;-65
2023/10/21 00:17:32;;;;;;;1.70;0.90;;;13.50;99.90;;;;;;4989276;28;20441;-65
2023/10/21 00:19:59;;;;;;;2.80;1.43;;;13.50;99.90;;;;;;4989726;28;21055;-65
2023/10/21 00:22:25;;;;;;;1.67;1.30;;;13.50;99.90;;;;;;4988408;28;20481;-65
2023/10/21 00:24:51;;;;;;;2.20;1.20;;;13.50;99.90;;;;;;4989295;28;20421;-65
2023/10/21 00:27:17;;;;;;;2.80;1.47;;;13.50;99.90;;;;;;4988921;28;20512;-65
2023/10/21 00:29:43;;;;;;;1.80;1.10;;;13.50;99.90;;;;;;4989779;28;20941;-64
2023/10/21 00:32:09;;;;;;;2.90;1.20;;;13.50;99.90;;;;;;4988451;28;20435;-63
2023/10/21 00:34:38;;;;;;;2.20;1.57;;;13.40;99.90;;;;;;4988913;28;21263;-65
2023/10/21 00:37:08;;;;;;;2.37;1.37;;;13.40;99.90;;;;;;4989186;28;20746;-65
2023/10/21 00:39:37;;;;;;;7.10;1.53;;;13.40;99.90;;;;;;4988972;28;20430;-65
2023/10/21 00:42:03;;;;;;;1.57;1.47;;;13.40;99.90;;;;;;4988315;28;20474;-64
2023/10/21 00:44:29;;;;;;;2.27;1.30;;;13.50;99.90;;;;;;4987998;28;20972;-64
2023/10/21 00:46:56;;;;;;;2.10;1.07;;;13.40;99.90;;;;;;4989368;28;20513;-65
2023/10/21 00:49:22;;;;;;;3.03;1.33;;;13.50;99.90;;;;;;4992194;28;20667;-64
2023/10/21 00:51:48;;;;;;;4.00;1.33;;;13.50;99.90;;;;;;4992745;28;20423;-65
2023/10/21 00:54:16;;;;;;;1.10;1.00;;;13.40;99.90;;;;;;4992133;28;20437;-65
2023/10/21 00:56:42;;;;;;;2.20;1.23;;;13.40;99.90;;;;;;4992474;28;20430;-65
2023/10/21 00:59:10;;;;;;;1.27;1.17;;;13.40;99.90;;;;;;4993468;28;20427;-65
2023/10/21 01:01:36;;;;;;;1.93;1.20;;;13.50;99.90;;;;;;4991009;28;21186;-65
2023/10/21 01:04:05;;;;;;;1.57;1.23;;;13.40;99.90;;;;;;4991448;28;20461;-65
2023/10/21 01:06:33;;;;;;;1.37;1.27;;;13.40;99.90;;;;;;4990645;28;20476;-65
2023/10/21 01:08:59;;;;;;;1.10;1.00;;;13.40;99.90;;;;;;4993099;28;20443;-65
2023/10/21 01:11:25;;;;;;;2.97;1.13;;;13.40;99.90;;;;;;4992481;28;20878;-65
2023/10/21 01:13:51;;;;;;;2.67;1.13;;;13.40;99.90;;;;;;4991310;28;20249;-65
2023/10/21 01:16:17;;;;;;;1.10;1.00;;;13.50;99.90;;;;;;4992001;28;20442;-64
2023/10/21 01:18:43;;;;;;;1.30;1.20;;;13.40;99.90;;;;;;4991867;28;20975;-65
2023/10/21 01:21:10;;;;;;;2.70;1.00;;;13.50;99.90;;;;;;4992094;28;20462;-65
2023/10/21 01:23:36;;;;;;;1.40;1.10;;;13.50;99.90;;;;;;4990841;28;20235;-65
2023/10/21 01:26:02;;;;;;;1.90;1.10;;;13.50;99.90;;;;;;4992043;28;20425;-65
2023/10/21 01:28:32;;;;;;;1.57;1.00;;;13.60;99.90;;;;;;4990167;28;20446;-64
2023/10/21 01:30:58;;;;;;;2.47;0.93;;;13.60;99.90;;;;;;4992333;28;20443;-65
2023/10/21 01:33:24;;;;;;;1.10;1.00;;;13.60;99.90;;;;;;4991171;28;20430;-62
2023/10/21 01:35:50;;;;;;;1.97;1.40;;;13.60;99.90;;;;;;4982076;28;20438;-65
2023/10/21 01:38:15;;;;;;;4.83;1.30;;;13.70;99.90;;;;;;4992420;28;20183;-65
2023/10/21 01:40:41;;;;;;;1.20;1.00;;;13.70;99.90;;;;;;4990158;28;20184;-65
2023/10/21 01:43:07;;;;;;;1.37;1.23;;;13.70;99.90;;;;;;4991387;28;20250;-65
2023/10/21 01:45:37;;;;;;;1.23;1.13;;;13.70;99.90;;;;;;4990920;28;21028;-65
2023/10/21 01:48:04;;;;;;;3.00;1.20;;;13.70;99.90;;;;;;4991477;28;20485;-65
2023/10/21 01:50:30;;;;;;;1.27;1.17;;;13.70;99.90;;;;;;4991048;28;20439;-64
2023/10/21 01:52:56;;;;;;;1.10;1.00;;;13.80;99.90;;;;;;4991211;28;20433;-65
2023/10/21 01:55:22;;;;;;;1.17;1.07;;;13.80;99.90;;;;;;4991544;28;20681;-65
2023/10/21 01:57:48;;;;;;;5.33;1.10;;;13.80;99.90;;;;;;4990689;28;20431;-65
2023/10/21 02:00:18;;;;;;;1.70;1.03;;;13.80;99.90;;;;;;4990649;28;21010;-64
2023/10/21 02:02:50;;;;;;;3.20;1.50;;;13.80;99.90;;;;;;4988428;28;21338;-64
2023/10/21 02:05:16;;;;;;;1.07;0.97;;;13.80;99.90;;;;;;4991345;28;21271;-64
2023/10/21 02:07:42;;;;;;;2.13;0.90;;;13.80;99.90;;;;;;4990469;28;20498;-65
2023/10/21 02:10:08;;;;;;;1.20;1.10;;;13.80;99.90;;;;;;4991683;28;20514;-65
2023/10/21 02:12:34;;;;;;;1.00;0.90;;;13.80;99.90;;;;;;4989485;28;20277;-64
2023/10/21 02:14:59;;;;;;;1.10;1.00;;;13.90;99.90;;;;;;4991099;28;20429;-65
2023/10/21 02:17:25;;;;;;;1.20;1.10;;;13.90;99.90;;;;;;4991150;28;20191;-65
2023/10/21 02:19:56;;;;;;;0.80;0.80;;;13.90;99.90;;;;;;4990269;28;20222;-64
2023/10/21 02:22:26;;;;;;;1.70;1.60;;;13.90;99.90;;;;;;4990103;28;20223;-64
2023/10/21 02:24:53;;;;;;;1.20;1.10;;;13.90;99.90;;;;;;4989802;28;20426;-65
2023/10/21 02:27:19;;;;;;;1.20;1.10;;;13.80;99.90;;;;;;4991142;28;20435;-65
2023/10/21 02:29:45;;;;;;;1.20;1.00;;;13.90;99.90;;;;;;4990163;28;20435;-65
2023/10/21 02:32:10;;;;;;;1.03;0.97;;;13.80;99.90;;;;;;4990305;28;20431;-65
2023/10/21 02:34:36;;;;;;;1.10;1.00;;;13.80;99.90;;;;;;4989661;28;20187;-65
2023/10/21 02:37:02;;;;;;;1.23;1.13;;;13.80;99.90;;;;;;4990163;28;20190;-65
2023/10/21 02:39:27;;;;;;;1.13;1.03;;;13.80;99.90;;;;;;4990953;28;20199;-65
2023/10/21 02:41:53;;;;;;;0.93;0.90;;;13.80;99.90;;;;;;4989112;28;20230;-64
2023/10/21 02:44:19;;;;;;;1.13;1.00;;;13.90;99.90;;;;;;4990549;28;20207;-64
2023/10/21 02:46:45;;;;;;;1.03;0.93;;;13.90;99.90;;;;;;4989263;28;20183;-64
2023/10/21 02:49:11;;;;;;;1.00;0.90;;;13.90;99.90;;;;;;4990055;28;20435;-65
2023/10/21 02:51:39;;;;;;;1.37;1.00;;;13.90;99.90;;;;;;4989935;28;20186;-64
2023/10/21 02:54:05;;;;;;;1.37;1.07;;;13.90;99.90;;;;;;4989171;28;20202;-64
2023/10/21 02:56:31;;;;;;;1.23;1.10;;;13.90;99.90;;;;;;5005101;28;21272;-64
2023/10/21 02:58:56;;;;;;;1.03;0.93;;;13.90;99.90;;;;;;4989833;28;20502;-65
2023/10/21 03:01:24;;;;;;;1.27;1.10;;;13.90;99.90;;;;;;4989290;28;20466;-64
2023/10/21 03:03:51;;;;;;;1.23;0.90;;;13.90;99.90;;;;;;4988174;28;20188;-64
2023/10/21 03:06:18;;;;;;;1.73;1.07;;;13.90;99.90;;;;;;4980399;28;21192;-63
2023/10/21 03:08:44;;;;;;;1.43;1.33;;;13.80;99.90;;;;;;4989962;28;20430;-64
2023/10/21 03:11:10;;;;;;;3.13;1.20;;;13.90;99.90;;;;;;4989220;28;21317;-64
2023/10/21 03:13:37;;;;;;;1.60;1.30;;;13.80;99.90;;;;;;4988778;28;20204;-65
2023/10/21 03:16:10;;;;;;;1.03;1.00;;;13.80;99.90;;;;;;4988552;28;21190;-64
2023/10/21 03:18:37;;;;;;;1.20;0.90;;;13.90;99.90;;;;;;4988451;28;20530;-64
2023/10/21 03:21:04;;;;;;;1.47;1.20;;;13.90;99.90;;;;;;4989139;28;20426;-64
2023/10/21 03:23:33;;;;;;;1.40;1.30;;;13.80;99.90;;;;;;4988478;28;20466;-64
2023/10/21 03:26:03;;;;;;;1.63;1.20;;;13.80;99.90;;;;;;4988853;28;21347;-64
2023/10/21 03:28:30;;;;;;;1.40;1.30;;;13.80;99.90;;;;;;4988967;28;20542;-65
2023/10/21 03:30:56;;;;;;;2.93;1.27;;;13.80;99.90;;;;;;4989221;28;20793;-64
2023/10/21 03:33:27;;;;;;;1.60;1.33;;;13.70;99.90;;;;;;4987517;28;20450;-64
2023/10/21 03:35:57;;;;;;;2.30;1.37;;;13.80;99.90;;;;;;4987468;28;20515;-64
2023/10/21 03:38:23;;;;;;;1.50;1.40;;;13.80;99.90;;;;;;4987480;28;20805;-64
2023/10/21 03:40:55;;;;;;;1.43;1.30;;;13.80;99.90;;;;;;4989215;28;20431;-64
2023/10/21 03:43:21;;;;;;;1.60;1.50;;;13.80;99.90;;;;;;4988475;28;20198;-65
2023/10/21 03:45:47;;;;;;;1.93;1.40;;;13.80;99.90;;;;;;4988956;28;20445;-64
2023/10/21 03:48:13;;;;;;;1.67;1.33;;;13.80;99.90;;;;;;4987857;28;20426;-64
2023/10/21 03:50:39;;;;;;;2.30;1.30;;;13.80;99.90;;;;;;4989380;28;20182;-64
2023/10/21 03:53:04;;;;;;;2.30;1.30;;;13.90;99.90;;;;;;4987936;28;20195;-64
2023/10/21 03:55:30;;;;;;;3.17;1.57;;;13.90;99.90;;;;;;4988849;28;20290;-64
2023/10/21 03:57:55;;;;;;;1.50;1.27;;;13.90;99.90;;;;;;4986916;28;20193;-64
2023/10/21 04:00:21;;;;;;;1.57;1.47;;;13.90;99.90;;;;;;4988849;28;20287;-64
2023/10/21 04:02:47;;;;;;;2.70;1.80;;;13.90;99.90;;;;;;4987343;28;20216;-64
2023/10/21 04:05:13;;;;;;;1.50;1.40;;;13.90;99.90;;;;;;4987563;28;20875;-64
2023/10/21 04:07:38;;;;;;;1.93;1.70;;;13.80;99.90;;;;;;4989533;28;20418;-64
2023/10/21 04:10:04;;;;;;;1.47;1.37;;;13.80;99.90;;;;;;4989112;28;20198;-65
2023/10/21 04:12:30;;;;;;;1.97;1.50;;;13.90;99.90;;;;;;4987542;28;20194;-64
2023/10/21 04:14:56;;;;;;;1.27;1.10;;;13.80;99.90;;;;;;4989096;28;20513;-63
2023/10/21 04:17:21;;;;;;;1.97;1.80;;;13.80;99.90;;;;;;4988291;28;20399;-65
2023/10/21 04:19:47;;;;;;;1.70;1.60;;;13.80;99.90;;;;;;4988854;28;20185;-64
2023/10/21 04:22:13;;;;;;;1.50;1.40;;;13.80;99.90;;;;;;4988027;28;20219;-65
2023/10/21 04:24:38;;;;;;;2.10;1.47;;;13.90;99.90;;;;;;4991963;28;20190;-64
2023/10/21 04:27:04;;;;;;;1.47;1.37;;;13.90;99.90;;;;;;4992518;28;20183;-64
2023/10/21 04:29:32;;;;;;;1.40;1.30;;;13.90;99.90;;;;;;4992682;28;20322;-64
2023/10/21 04:31:58;;;;;;;2.03;1.83;;;13.90;99.90;;;;;;4992055;28;20763;-64
2023/10/21 04:34:25;;;;;;;2.10;1.90;;;13.90;99.90;;;;;;4991737;28;20524;-64
2023/10/21 04:36:50;;;;;;;2.07;1.87;;;13.90;99.90;;;;;;4992209;28;20446;-65
2023/10/21 04:39:16;;;;;;;2.03;1.80;;;13.90;99.90;;;;;;4991783;28;20426;-64
2023/10/21 04:41:42;;;;;;;2.67;2.03;;;13.90;99.90;;;;;;4992242;28;20218;-64
2023/10/21 04:44:09;;;;;;;2.30;2.10;;;13.90;99.90;;;;;;4991198;28;20203;-64
2023/10/21 04:46:35;;;;;;;3.97;2.60;;;13.90;99.90;;;;;;4991940;28;20746;-64
2023/10/21 04:49:01;;;;;;;4.17;2.60;;;14.00;99.90;;;;;;4992345;28;20490;-64
2023/10/21 04:51:26;;;;;;;7.40;2.10;;;14.00;99.90;;;;;;4992049;28;20194;-64
2023/10/21 04:53:52;;;;;;;2.40;2.20;;;14.00;99.90;;;;;;4990825;28;20188;-64
2023/10/21 04:56:17;;;;;;;2.40;2.20;;;14.00;99.90;;;;;;4991301;28;20191;-64
2023/10/21 04:58:43;;;;;;;3.60;2.40;;;14.00;99.90;;;;;;4991165;28;20629;-64
2023/10/21 05:01:10;;;;;;;3.03;2.50;;;14.00;99.90;;;;;;4990868;28;20194;-63
2023/10/21 05:03:36;;;;;;;2.63;2.43;;;14.00;99.90;;;;;;4990626;28;20180;-65
2023/10/21 05:06:04;;;;;;;2.50;2.30;;;14.00;99.90;;;;;;4991511;28;20494;-64
2023/10/21 05:08:31;;;;;;;3.00;2.40;;;14.10;99.90;;;;;;4991235;28;20434;-64
2023/10/21 05:10:57;;;;;;;3.53;2.33;;;14.10;99.90;;;;;;4991669;28;20529;-65
2023/10/21 05:13:23;;;;;;;2.80;2.50;;;14.00;99.90;;;;;;4990127;28;20819;-64
2023/10/21 05:15:50;;;;;;;3.07;2.70;;;14.10;99.90;;;;;;4990818;28;20242;-64
2023/10/21 05:18:16;;;;;;;3.40;3.07;;;14.10;99.90;;;;;;4991418;28;20463;-64
2023/10/21 05:20:42;;;;;;;3.97;2.60;;;14.10;99.90;;;;;;4991496;28;20666;-64
2023/10/21 05:23:08;;;;;;;2.87;2.40;;;14.10;99.90;;;;;;4990023;28;20473;-64
2023/10/21 05:25:34;;;;;;;4.27;2.67;;;14.10;99.90;;;;;;4989824;28;20488;-64
2023/10/21 05:28:00;;;;;;;4.40;3.07;;;14.10;99.90;;;;;;4991224;28;20789;-65
2023/10/21 05:30:25;;;;;;;3.30;2.80;;;14.10;99.90;;;;;;4990874;28;20452;-64
2023/10/21 05:32:51;;;;;;;2.57;2.23;;;14.10;99.90;;;;;;4989832;28;20179;-64
2023/10/21 05:35:17;;;;;;;3.50;2.47;;;14.10;99.90;;;;;;4990794;28;20194;-64
2023/10/21 05:37:43;;;;;;;2.53;2.33;;;14.20;99.90;;;;;;4991499;28;20336;-64
2023/10/21 05:40:10;;;;;;;3.60;2.50;;;14.10;99.90;;;;;;4989842;28;20435;-64
2023/10/21 05:42:36;;;;;;;2.23;2.13;;;14.20;99.90;;;;;;4989343;28;20211;-64
2023/10/21 05:45:02;;;;;;;2.90;2.40;;;14.20;99.90;;;;;;4990684;28;20984;-64
2023/10/21 05:47:28;;;;;;;3.97;3.50;;;14.10;99.90;;;;;;4990135;28;20974;-64
2023/10/21 05:49:54;;;;;;;4.67;2.90;;;14.10;99.90;;;;;;4991221;28;20419;-64
2023/10/21 05:52:19;;;;;;;3.90;3.00;;;14.10;99.90;;;;;;4988553;28;20192;-64
2023/10/21 05:54:45;;;;;;;3.20;2.70;;;14.20;99.90;;;;;;4990235;28;21350;-64
2023/10/21 05:57:11;;;;;;;3.07;2.77;;;14.20;99.90;;;;;;4990924;28;20192;-65
2023/10/21 05:59:37;;;;;;;3.90;3.07;;;14.10;99.90;;;;;;4989767;28;20194;-65
2023/10/21 06:02:03;;;;;;;2.90;2.60;;;14.20;99.90;;;;;;4989046;28;20239;-65
2023/10/21 06:04:31;;;;;;;3.10;2.80;;;14.10;99.90;;;;;;4988876;28;20569;-65
2023/10/21 06:06:57;;;;;;;3.37;2.70;;;14.10;99.90;;;;;;4990485;28;20439;-65
2023/10/21 06:09:26;;;;;;;3.37;2.80;;;14.10;99.90;;;;;;4989492;28;20446;-65
2023/10/21 06:11:52;;;;;;;4.77;2.50;;;14.10;99.90;;;;;;4988418;28;20195;-65
2023/10/21 06:14:18;;;;;;;4.17;2.87;;;14.10;99.90;;;;;;4989186;28;20545;-65
2023/10/21 06:16:44;;;;;;;2.80;2.17;;;14.00;99.90;;;;;;4988164;28;20423;-64
2023/10/21 06:19:10;;;;;;;4.00;2.73;;;14.00;99.90;;;;;;4988514;28;21051;-65
2023/10/21 06:21:37;;;;;;;4.27;2.50;;;14.00;99.90;;;;;;4988586;28;20517;-64
2023/10/21 06:24:05;;;;;;;2.83;2.63;;;14.00;99.90;;;;;;4991194;28;20443;-65
2023/10/21 06:26:31;;;;;;;4.20;2.97;;;14.00;99.90;;;;;;4987744;28;20446;-65
2023/10/21 06:28:58;;;;;;;3.00;2.50;;;14.00;99.90;;;;;;4990926;28;20756;-65
2023/10/21 06:31:24;;;;;;;2.83;2.63;;;14.10;99.90;;;;;;4989216;28;20599;-65
2023/10/21 06:33:49;;;;;;;2.63;2.37;;;14.10;99.90;;;;;;4985635;28;20442;-64
2023/10/21 06:36:16;;;;;;;3.00;2.33;;;14.00;99.90;;;;;;4989811;28;20442;-64
2023/10/21 06:38:41;;;;;;;2.40;2.03;;;14.00;99.90;;;;;;4989210;28;20576;-65
2023/10/21 06:41:07;;;;;;;3.40;2.30;;;14.00;99.90;;;;;;4990085;28;20520;-65
2023/10/21 06:43:33;;;;;;;3.70;2.30;;;14.10;99.90;;;;;;4986555;28;20215;-65
2023/10/21 06:45:59;;;;;;;2.30;1.90;;;14.10;99.90;;;;;;4989206;28;20544;-65
2023/10/21 06:48:26;;;;;;;2.00;1.80;;;14.10;99.90;;;;;;4985416;28;20187;-65
2023/10/21 06:50:52;;;;;;;1.90;1.77;;;14.20;99.90;;;;;;4988258;28;20446;-65
2023/10/21 06:53:18;;;;;;;1.97;1.60;;;14.20;99.90;;;;;;4988329;28;20449;-65
2023/10/21 06:55:44;;;;;;;2.53;1.80;;;14.20;99.90;;;;;;4989472;28;20893;-65
2023/10/21 06:58:13;;;;;;;2.53;2.00;;;14.10;99.90;;;;;;4990830;28;20239;-64
2023/10/21 07:00:39;;;;;;;2.30;2.10;;;14.20;99.90;;;;;;4989955;28;20427;-66
2023/10/21 07:03:05;;;;;;;1.80;1.60;;;14.20;99.90;;;;;;4985887;28;20509;-65
2023/10/21 07:05:31;;;;;;;1.60;1.50;;;14.20;99.90;;;;;;4989665;28;20455;-64
2023/10/21 07:07:57;;;;;;;4.07;1.43;;;14.20;99.90;;;;;;4987438;28;20438;-65
2023/10/21 07:10:23;;;;;;;1.20;1.10;;;14.20;99.90;;;;;;4987652;28;20975;-65
2023/10/21 07:12:51;;;;;;;1.63;1.40;;;14.20;99.90;;;;;;4986840;28;20715;-65
2023/10/21 07:15:17;;;;;;;2.10;1.30;;;14.20;99.90;;;;;;4988558;28;20429;-65
2023/10/21 07:17:43;;;;;;;2.70;1.37;;;14.20;99.90;;;;;;4988711;28;20521;-65
2023/10/21 07:20:09;;;;;;;0.97;0.97;;;14.20;99.90;;;;;;4989469;28;20463;-65
2023/10/21 07:22:36;;;;;;;1.20;1.10;;;14.20;99.90;;;;;;4989847;28;20338;-65
2023/10/21 07:25:02;;;;;;;1.83;1.07;;;14.30;99.90;;;;;;4990739;28;20500;-65
2023/10/21 07:27:27;;;;;;;2.50;1.23;;;14.30;99.90;;;;;;4991503;28;21009;-64
2023/10/21 07:29:56;;;;;;;2.00;1.17;;;14.30;99.90;;;;;;4991383;28;21081;-65
2023/10/21 07:32:23;;;;;;;1.23;1.07;;;14.40;99.90;;;;;;4990368;28;20443;-65
2023/10/21 07:34:49;;;;;;;1.60;0.90;;;14.40;99.90;;;;;;4988899;28;20446;-65
2023/10/21 07:37:15;;;;;;;1.03;0.93;;;14.50;99.90;;;;;;4988505;28;21322;-65
2023/10/21 07:39:40;;;;;;;1.83;0.90;;;14.60;99.90;;;;;;4988923;28;20194;-64
2023/10/21 07:42:06;;;;;;;1.27;0.90;;;14.80;99.90;;;;;;4991102;28;20212;-65
2023/10/21 07:44:32;;;;;;;1.57;1.20;;;14.90;99.90;;;;;;4980925;28;20257;-64
2023/10/21 07:46:58;;;;;;;1.10;1.00;;;15.00;99.90;;;;;;4986730;28;20187;-65
2023/10/21 07:49:24;;;;;;;2.20;1.13;;;15.10;99.90;;;;;;4987225;28;21204;-65
2023/10/21 07:51:50;;;;;;;1.40;0.93;;;15.30;99.90;;;;;;4986034;28;20531;-64
2023/10/21 07:54:16;;;;;;;2.63;0.60;;;15.40;99.90;;;;;;4987158;28;20442;-65
2023/10/21 07:56:45;;;;;;;1.00;0.70;;;15.50;99.90;;;;;;4986527;28;20431;-64
2023/10/21 07:59:11;;;;;;;2.00;0.70;;;15.50;99.90;;;;;;4986602;28;20194;-65
2023/10/21 08:01:37;;;;;;;0.60;0.50;;;15.50;99.90;;;;;;4987020;28;20470;-65
2023/10/21 08:04:04;;;;;;;3.23;0.83;;;15.40;99.90;;;;;;4988240;28;20430;-65
2023/10/21 08:06:30;;;;;;;1.10;0.60;;;15.30;99.90;;;;;;4989065;28;20435;-65
2023/10/21 08:08:56;;;;;;;1.53;0.80;;;15.10;99.90;;;;;;4987635;28;20438;-64
2023/10/21 08:11:22;;;;;;;1.87;0.60;;;15.00;99.90;;;;;;4989357;28;20920;-65
2023/10/21 08:13:48;;;;;;;1.20;0.70;;;15.00;99.90;;;;;;4986883;28;20525;-65
2023/10/21 08:16:14;;;;;;;2.13;0.70;;;14.90;99.90;;;;;;4984903;28;20186;-64
2023/10/21 08:18:40;;;;;;;1.13;0.70;;;14.80;99.90;;;;;;4983668;28;20805;-64
2023/10/21 08:21:06;;;;;;;0.70;0.70;;;14.80;99.90;;;;;;4976985;28;20188;-64
2023/10/21 08:23:31;;;;;;;0.80;0.70;;;15.00;99.90;;;;;;4976865;28;20422;-64
2023/10/21 08:26:00;;;;;;;1.17;0.60;;;15.20;99.90;;;;;;4982030;28;20180;-65
2023/10/21 08:28:25;;;;;;;2.30;0.70;;;15.40;99.90;;;;;;4983448;28;20230;-65
2023/10/21 08:30:51;;;;;;;0.80;0.70;;;15.60;99.90;;;;;;4985772;28;20517;-65
2023/10/21 08:33:17;;;;;;;0.73;0.50;;;16.00;99.90;;;;;;4985075;28;20186;-65
2023/10/21 08:35:43;;;;;;;0.60;0.40;;;16.20;99.90;;;;;;4982329;28;20192;-65
2023/10/21 08:38:09;;;;;;;0.90;0.57;;;16.30;99.90;;;;;;4978795;28;20226;-63
2023/10/21 08:40:38;;;;;;;0.80;0.47;;;16.30;99.90;;;;;;4978949;28;20513;-66
2023/10/21 08:43:04;;;;;;;0.87;0.40;;;16.20;99.90;;;;;;4978525;28;20326;-66
2023/10/21 08:45:34;;;;;;;0.80;0.47;;;16.10;99.90;;;;;;4980431;28;20439;-65
2023/10/21 08:48:01;;;;;;;1.33;0.50;;;15.90;99.90;;;;;;4978615;28;20517;-64
2023/10/21 08:50:27;;;;;;;1.30;0.60;;;15.70;99.90;;;;;;4978778;28;21122;-65
2023/10/21 08:52:55;;;;;;;0.93;0.43;;;15.60;99.90;;;;;;4976999;28;20857;-65
2023/10/21 08:55:22;;;;;;;1.30;0.50;;;15.50;99.90;;;;;;4979858;28;20438;-65
2023/10/21 08:57:51;;;;;;;0.50;0.40;;;15.50;99.90;;;;;;4979142;28;20537;-64
2023/10/21 09:00:17;;;;;;;2.53;0.70;;;15.40;99.90;;;;;;4977838;28;20457;-65
2023/10/21 09:02:43;;;;;;;1.00;0.67;;;15.30;99.90;;;;;;4976504;28;20463;-65
2023/10/21 09:05:12;;;;;;;0.70;0.60;;;15.30;99.90;;;;;;4987472;28;20581;-65
2023/10/21 09:07:49;;;;;;;1.20;0.67;;;15.10;99.90;;;;;;4983834;28;20270;-65
2023/10/21 09:10:16;;;;;;;1.50;0.80;;;15.20;99.90;;;;;;4990525;28;20443;-65
2023/10/21 09:12:42;;;;;;;0.73;0.50;;;15.20;99.90;;;;;;4990448;28;20431;-65
2023/10/21 09:15:09;;;;;;;0.83;0.60;;;15.20;99.90;;;;;;4992282;28;20437;-65
2023/10/21 09:17:39;;;;;;;0.93;0.73;;;15.20;99.90;;;;;;4992476;28;20187;-64
2023/10/21 09:20:15;;;;;;;0.70;0.60;;;15.20;99.90;;;;;;4991902;28;20529;-65
2023/10/21 09:22:49;;;;;;;1.00;0.53;;;15.20;99.90;;;;;;4992772;28;20514;-65
2023/10/21 09:25:19;;;;;;;0.63;0.53;;;15.20;99.90;;;;;;4991995;28;20431;-65
2023/10/21 09:27:53;;;;;;;0.70;0.60;;;15.20;99.90;;;;;;4993068;28;20466;-65
2023/10/21 09:30:24;;;;;;;1.90;0.50;;;15.10;99.90;;;;;;4992495;28;20999;-65
2023/10/21 09:32:50;;;;;;;0.77;0.70;;;15.10;99.90;;;;;;4988763;28;20465;-64
2023/10/21 09:35:27;;;;;;;1.03;0.60;;;15.10;99.90;;;;;;4985958;28;21463;-64
2023/10/21 09:37:53;;;;;;;1.10;0.50;;;15.10;99.90;;;;;;4986706;28;20496;-64
2023/10/21 09:40:20;;;;;;;1.20;0.50;;;15.10;99.90;;;;;;4986952;28;20442;-63
2023/10/21 09:42:49;;;;;;;3.20;0.60;;;15.20;99.90;;;;;;4987827;28;20242;-65
2023/10/21 09:45:18;;;;;;;0.70;0.60;;;15.20;99.90;;;;;;4985430;28;20450;-64
2023/10/21 09:47:45;;;;;;;0.70;0.47;;;15.40;99.90;;;;;;4986903;28;20520;-64
2023/10/21 09:50:15;;;;;;;0.87;0.47;;;15.60;99.90;;;;;;4985960;28;20488;-65
2023/10/21 09:52:44;;;;;;;1.90;0.70;;;15.90;99.90;;;;;;4986853;28;21207;-64
2023/10/21 09:55:11;;;;;;;1.43;0.50;;;16.10;99.90;;;;;;4986359;28;20439;-64
2023/10/21 09:57:38;;;;;;;0.60;0.37;;;16.40;99.90;;;;;;4979463;28;20794;-65
2023/10/21 10:00:08;;;;;;;0.70;0.40;;;16.60;99.90;;;;;;4985140;28;20441;-63
2023/10/21 10:02:38;;;;;;;1.10;0.67;;;16.90;99.90;;;;;;4986071;28;20470;-65
2023/10/21 10:05:07;;;;;;;0.80;0.40;;;17.00;99.90;;;;;;4985184;28;21004;-65
2023/10/21 10:07:36;;;;;;;1.00;0.50;;;17.10;99.90;;;;;;4986351;28;20423;-64
2023/10/21 10:10:06;;;;;;;1.10;0.40;;;17.20;99.90;;;;;;4985171;28;20470;-64
2023/10/21 10:12:52;;;;;;;0.70;0.50;;;17.20;99.90;;;;;;4984952;28;20493;-63
2023/10/21 10:15:33;;;;;;;0.70;0.43;;;17.10;99.90;;;;;;4983973;28;20936;-64
2023/10/21 10:18:04;;;;;;;1.43;0.33;;;16.90;99.90;;;;;;4987170;28;20546;-64
2023/10/21 10:20:31;;;;;;;2.90;0.67;;;16.70;99.90;;;;;;4985424;28;20433;-64
2023/10/21 10:23:04;;;;;;;0.87;0.47;;;16.60;99.90;;;;;;4985473;28;20549;-63
2023/10/21 10:25:33;;;;;;;1.17;0.57;;;16.50;99.90;;;;;;4985044;28;20438;-64
2023/10/21 10:28:10;;;;;;;1.60;0.40;;;16.40;99.90;;;;;;4986190;28;20419;-64
2023/10/21 10:30:38;;;;;;;0.97;0.60;;;16.40;99.90;;;;;;4984670;28;20875;-64
2023/10/21 10:33:06;;;;;;;2.27;0.70;;;16.30;99.90;;;;;;4999983;28;20504;-64
2023/10/21 10:35:43;;;;;;;1.17;0.50;;;16.30;99.90;;;;;;4984016;28;20783;-64
2023/10/21 10:38:27;;;;;;;1.27;0.50;;;16.30;99.90;;;;;;4983908;28;20430;-64
2023/10/21 10:41:18;;;;;;;2.77;0.60;;;16.20;99.90;;;;;;4985107;28;20495;-64
2023/10/21 10:44:01;;;;;;;1.10;0.40;;;16.20;99.90;;;;;;4960137;28;20525;-63
2023/10/21 10:46:28;;;;;;;1.67;0.57;;;16.30;99.90;;;;;;4983577;28;20454;-64
2023/10/21 10:48:54;;;;;;;3.80;0.53;;;16.30;99.90;;;;;;4982917;28;20441;-64
2023/10/21 10:51:27;;;;;;;2.00;0.60;;;16.30;99.90;;;;;;4983595;28;20969;-63
2023/10/21 10:53:56;;;;;;;1.70;0.80;;;16.30;99.90;;;;;;4984067;28;20643;-64
2023/10/21 10:56:25;;;;;;;2.30;0.70;;;16.30;99.90;;;;;;4983608;28;20428;-65
2023/10/21 10:58:52;;;;;;;5.03;0.93;;;16.30;99.90;;;;;;4984421;28;20438;-63
2023/10/21 11:01:25;;;;;;;1.93;0.77;;;16.30;99.90;;;;;;4976205;28;20606;-63
2023/10/21 11:04:08;;;;;;;1.30;0.50;;;16.30;99.90;;;;;;4983306;28;20423;-65
2023/10/21 11:06:36;;;;;;;4.40;0.80;;;16.20;99.90;;;;;;4983503;28;20543;-64
2023/10/21 11:09:36;;;;;;;0.67;0.47;;;16.20;99.90;;;;;;4984944;28;21042;-65
2023/10/21 11:11:57;;;;;;;2.20;0.63;;;16.30;99.90;;;;;;4989861;28;20822;-66
2023/10/21 11:14:24;;;;;;;1.93;0.70;;;16.40;99.90;;;;;;4996747;28;20435;-66
2023/10/21 11:16:50;;;;;;;2.00;0.50;;;16.50;99.90;;;;;;4983460;28;20497;-64
2023/10/21 11:19:17;;;;;;;3.10;0.80;;;16.50;99.90;;;;;;4984416;28;20432;-64
2023/10/21 11:21:48;;;;;;;0.83;0.43;;;16.70;99.90;;;;;;4998025;28;20466;-66
2023/10/21 11:24:14;;;;;;;4.20;0.60;;;16.80;99.90;;;;;;4982159;28;20502;-65
2023/10/21 11:26:41;;;;;;;0.70;0.30;;;16.90;99.90;;;;;;4982720;28;21125;-65
2023/10/21 11:29:06;;;;;;;3.23;0.70;;;17.00;99.90;;;;;;4983092;28;22177;-65
2023/10/21 11:31:34;;;;;;;2.47;0.90;;;17.10;99.90;;;;;;4982363;28;20435;-63
2023/10/21 11:34:17;;;;;;;2.10;0.73;;;17.20;99.90;;;;;;4982338;28;20531;-66
2023/10/21 11:36:49;;;;;;;2.70;0.73;;;17.30;99.90;;;;;;4983699;28;20430;-67
2023/10/21 11:39:21;;;;;;;1.03;0.80;;;17.30;99.90;;;;;;4981124;28;20501;-64
2023/10/21 11:41:48;;;;;;;0.80;0.70;;;17.20;99.90;;;;;;4995830;28;20477;-64
2023/10/21 11:44:17;;;;;;;1.07;0.80;;;17.10;99.90;;;;;;4980951;28;20457;-65
2023/10/21 11:46:43;;;;;;;1.30;0.47;;;17.10;99.90;;;;;;4980475;28;20922;-64
2023/10/21 11:49:15;;;;;;;0.70;0.50;;;17.30;99.90;;;;;;4981660;28;20439;-65
2023/10/21 11:51:49;;;;;;;1.43;0.50;;;17.40;99.90;;;;;;4982559;28;20865;-65
2023/10/21 11:54:32;;;;;;;1.13;0.60;;;17.50;99.90;;;;;;4981340;28;20521;-64
2023/10/21 12:10:43;;;;;;;1.63;0.77;;;17.80;99.90;;;;;;4989412;28;20516;-64
2023/10/21 12:15:54;;;;;;;2.53;0.80;;;18.10;99.90;;;;;;4987207;28;21132;-66
2023/10/21 12:26:21;;;;;;;1.87;0.50;;;18.20;99.90;;;;;;4959380;28;20454;-65
2023/10/21 12:35:10;;;;;;;1.80;0.73;;;18.20;99.90;;;;;;4984891;28;20447;-65
2023/10/21 12:37:45;;;;;;;1.30;0.50;;;18.20;99.90;;;;;;4977998;28;20478;-64
2023/10/21 12:39:37;;;;;;;3.00;1.00;;;18.10;99.90;;;;;;4977724;28;20446;-65
2023/10/21 12:42:21;;;;;;;1.70;0.67;;;17.90;99.90;;;;;;4983222;28;20620;-64
2023/10/21 12:44:52;;;;;;;1.70;0.90;;;17.90;99.90;;;;;;4989747;28;20473;-65
2023/10/21 12:47:18;;;;;;;1.73;0.53;;;17.90;99.90;;;;;;4991709;28;20431;-65
2023/10/21 12:49:45;;;;;;;2.40;0.80;;;17.90;99.90;;;;;;4990537;28;20526;-64
2023/10/21 12:52:11;;;;;;;3.03;0.80;;;17.70;99.90;;;;;;4992174;28;20438;-63
2023/10/21 12:54:37;;;;;;;1.80;0.80;;;17.60;99.90;;;;;;4990280;28;20453;-66
2023/10/21 12:57:04;;;;;;;3.83;1.07;;;17.50;99.90;;;;;;4992758;28;20439;-65
2023/10/21 12:59:29;;;;;;;4.07;0.80;;;17.30;99.90;;;;;;4989823;28;20442;-64
2023/10/21 13:01:55;;;;;;;2.53;0.60;;;17.20;99.90;;;;;;5005971;28;20490;-66
2023/10/21 13:04:21;;;;;;;3.10;1.33;;;17.10;99.90;;;;;;4990989;28;20194;-64
2023/10/21 13:06:47;;;;;;;1.60;1.03;;;17.20;99.90;;;;;;4992096;28;20186;-66
2023/10/21 13:09:27;;;;;;;3.63;0.80;;;17.50;99.90;;;;;;4992988;28;20249;-64
2023/10/21 13:11:53;;;;;;;5.70;1.27;;;17.80;99.90;;;;;;4991250;28;20457;-63
2023/10/21 13:14:20;;;;;;;1.50;0.90;;;17.90;99.90;;;;;;4989691;28;20518;-64
2023/10/21 13:16:46;;;;;;;2.33;0.73;;;18.10;99.90;;;;;;4993536;28;20438;-66
2023/10/21 13:19:12;;;;;;;2.97;1.10;;;18.20;99.90;;;;;;4984430;28;21261;-65